sensor_id;sensor_type;location;lat;lon;timestamp;P1;durP1;ratioP1;P2;durP2;ratioP2
39740;SDS011;25426;53.478;10.190;2022-08-19T00:01:55;17.85;;;12.73;;
39740;SDS011;25426;53.478;10.190;2022-08-19T00:04:31;16.38;;;13.18;;
39740;SDS011;25426;53.478;10.190;2022-08-19T00:07:06;15.20;;;13.60;;
39740;SDS011;25426;53.478;10.190;2022-08-19T00:09:37;17.95;;;15.88;;
39740;SDS011;25426;53.478;10.190;2022-08-19T00:12:08;16.38;;;14.68;;
39740;SDS011;25426;53.478;10.190;2022-08-19T00:14:39;16.45;;;14.18;;
39740;SDS011;25426;53.478;10.190;2022-08-19T00:17:10;18.73;;;14.95;;
39740;SDS011;25426;53.478;10.190;2022-08-19T00:19:42;16.85;;;15.10;;
39740;SDS011;25426;53.478;10.190;2022-08-19T00:22:13;19.00;;;15.27;;
39740;SDS011;25426;53.478;10.190;2022-08-19T00:24:44;16.30;;;14.60;;
39740;SDS011;25426;53.478;10.190;2022-08-19T00:27:15;17.13;;;15.43;;
39740;SDS011;25426;53.478;10.190;2022-08-19T00:29:46;18.52;;;15.07;;
39740;SDS011;25426;53.478;10.190;2022-08-19T00:32:17;18.50;;;16.67;;
39740;SDS011;25426;53.478;10.190;2022-08-19T00:34:47;20.33;;;16.35;;
39740;SDS011;25426;53.478;10.190;2022-08-19T00:37:19;18.60;;;16.60;;
39740;SDS011;25426;53.478;10.190;2022-08-19T00:39:53;18.65;;;16.70;;
39740;SDS011;25426;53.478;10.190;2022-08-19T00:42:23;20.90;;;17.83;;
39740;SDS011;25426;53.478;10.190;2022-08-19T00:44:58;20.23;;;18.02;;
39740;SDS011;25426;53.478;10.190;2022-08-19T00:47:29;22.58;;;17.88;;
39740;SDS011;25426;53.478;10.190;2022-08-19T00:49:59;21.35;;;19.17;;
39740;SDS011;25426;53.478;10.190;2022-08-19T00:52:32;20.90;;;18.13;;
39740;SDS011;25426;53.478;10.190;2022-08-19T00:55:07;21.13;;;18.70;;
39740;SDS011;25426;53.478;10.190;2022-08-19T00:57:42;22.73;;;19.55;;
39740;SDS011;25426;53.478;10.190;2022-08-19T01:00:19;21.95;;;19.65;;
39740;SDS011;25426;53.478;10.190;2022-08-19T01:02:51;18.77;;;16.90;;
39740;SDS011;25426;53.478;10.190;2022-08-19T01:05:25;21.52;;;19.30;;
39740;SDS011;25426;53.478;10.190;2022-08-19T01:07:59;22.30;;;19.48;;
39740;SDS011;25426;53.478;10.190;2022-08-19T01:10:35;23.95;;;20.42;;
39740;SDS011;25426;53.478;10.190;2022-08-19T01:13:14;24.13;;;21.25;;
39740;SDS011;25426;53.478;10.190;2022-08-19T01:15:52;25.25;;;21.23;;
39740;SDS011;25426;53.478;10.190;2022-08-19T01:18:27;25.50;;;22.60;;
39740;SDS011;25426;53.478;10.190;2022-08-19T01:21:00;22.98;;;20.67;;
39740;SDS011;25426;53.478;10.190;2022-08-19T01:23:36;23.52;;;20.85;;
39740;SDS011;25426;53.478;10.190;2022-08-19T01:26:15;28.67;;;24.20;;
39740;SDS011;25426;53.478;10.190;2022-08-19T01:28:55;25.75;;;23.13;;
39740;SDS011;25426;53.478;10.190;2022-08-19T01:31:28;28.50;;;25.45;;
39740;SDS011;25426;53.478;10.190;2022-08-19T01:34:01;25.10;;;22.50;;
39740;SDS011;25426;53.478;10.190;2022-08-19T01:36:33;26.35;;;23.55;;
39740;SDS011;25426;53.478;10.190;2022-08-19T01:39:09;29.20;;;24.67;;
39740;SDS011;25426;53.478;10.190;2022-08-19T01:41:42;27.95;;;24.63;;
39740;SDS011;25426;53.478;10.190;2022-08-19T01:44:13;28.10;;;24.08;;
39740;SDS011;25426;53.478;10.190;2022-08-19T01:46:45;29.45;;;25.95;;
39740;SDS011;25426;53.478;10.190;2022-08-19T01:49:18;29.50;;;25.67;;
39740;SDS011;25426;53.478;10.190;2022-08-19T01:51:51;28.20;;;24.98;;
39740;SDS011;25426;53.478;10.190;2022-08-19T01:54:23;28.63;;;24.70;;
39740;SDS011;25426;53.478;10.190;2022-08-19T01:57:01;30.77;;;25.98;;
39740;SDS011;25426;53.478;10.190;2022-08-19T01:59:35;32.67;;;27.23;;
39740;SDS011;25426;53.478;10.190;2022-08-19T02:02:06;34.53;;;27.10;;
39740;SDS011;25426;53.478;10.190;2022-08-19T02:04:37;33.00;;;29.20;;
39740;SDS011;25426;53.478;10.190;2022-08-19T02:07:08;34.72;;;26.75;;
39740;SDS011;25426;53.478;10.190;2022-08-19T02:09:39;30.08;;;26.67;;
39740;SDS011;25426;53.478;10.190;2022-08-19T02:12:10;34.30;;;29.23;;
39740;SDS011;25426;53.478;10.190;2022-08-19T02:14:41;35.70;;;30.25;;
39740;SDS011;25426;53.478;10.190;2022-08-19T02:17:12;36.75;;;29.58;;
39740;SDS011;25426;53.478;10.190;2022-08-19T02:19:42;35.50;;;28.83;;
39740;SDS011;25426;53.478;10.190;2022-08-19T02:22:13;38.17;;;28.65;;
39740;SDS011;25426;53.478;10.190;2022-08-19T02:24:44;35.17;;;29.95;;
39740;SDS011;25426;53.478;10.190;2022-08-19T02:27:15;34.17;;;28.15;;
39740;SDS011;25426;53.478;10.190;2022-08-19T02:29:47;30.30;;;25.60;;
39740;SDS011;25426;53.478;10.190;2022-08-19T02:32:19;32.83;;;28.15;;
39740;SDS011;25426;53.478;10.190;2022-08-19T02:34:49;34.90;;;28.17;;
39740;SDS011;25426;53.478;10.190;2022-08-19T02:37:20;33.55;;;27.83;;
39740;SDS011;25426;53.478;10.190;2022-08-19T02:40:10;39.55;;;28.00;;
39740;SDS011;25426;53.478;10.190;2022-08-19T02:42:41;32.67;;;27.67;;
39740;SDS011;25426;53.478;10.190;2022-08-19T02:45:12;28.27;;;24.83;;
39740;SDS011;25426;53.478;10.190;2022-08-19T02:47:44;34.95;;;26.25;;
39740;SDS011;25426;53.478;10.190;2022-08-19T02:50:14;31.38;;;25.85;;
39740;SDS011;25426;53.478;10.190;2022-08-19T02:52:45;29.75;;;25.23;;
39740;SDS011;25426;53.478;10.190;2022-08-19T02:55:16;27.17;;;24.13;;
39740;SDS011;25426;53.478;10.190;2022-08-19T02:57:47;29.60;;;25.42;;
39740;SDS011;25426;53.478;10.190;2022-08-19T03:00:18;28.45;;;24.55;;
39740;SDS011;25426;53.478;10.190;2022-08-19T03:02:49;31.42;;;25.35;;
39740;SDS011;25426;53.478;10.190;2022-08-19T03:05:20;29.13;;;24.27;;
39740;SDS011;25426;53.478;10.190;2022-08-19T03:07:50;26.33;;;23.63;;
39740;SDS011;25426;53.478;10.190;2022-08-19T03:10:21;30.55;;;25.40;;
39740;SDS011;25426;53.478;10.190;2022-08-19T03:12:52;27.73;;;24.58;;
39740;SDS011;25426;53.478;10.190;2022-08-19T03:15:23;27.60;;;23.88;;
39740;SDS011;25426;53.478;10.190;2022-08-19T03:17:54;29.83;;;24.40;;
39740;SDS011;25426;53.478;10.190;2022-08-19T03:20:25;26.85;;;23.48;;
39740;SDS011;25426;53.478;10.190;2022-08-19T03:22:56;28.55;;;24.13;;
39740;SDS011;25426;53.478;10.190;2022-08-19T03:25:27;32.33;;;24.00;;
39740;SDS011;25426;53.478;10.190;2022-08-19T03:27:58;33.10;;;24.77;;
39740;SDS011;25426;53.478;10.190;2022-08-19T03:30:28;27.90;;;24.58;;
39740;SDS011;25426;53.478;10.190;2022-08-19T03:33:00;28.73;;;23.95;;
39740;SDS011;25426;53.478;10.190;2022-08-19T03:35:31;27.48;;;23.92;;
39740;SDS011;25426;53.478;10.190;2022-08-19T03:38:03;25.95;;;22.50;;
39740;SDS011;25426;53.478;10.190;2022-08-19T03:40:36;25.40;;;21.92;;
39740;SDS011;25426;53.478;10.190;2022-08-19T03:43:07;25.02;;;22.38;;
39740;SDS011;25426;53.478;10.190;2022-08-19T03:45:38;26.20;;;21.98;;
39740;SDS011;25426;53.478;10.190;2022-08-19T03:48:09;30.92;;;25.15;;
39740;SDS011;25426;53.478;10.190;2022-08-19T03:50:40;27.77;;;23.20;;
39740;SDS011;25426;53.478;10.190;2022-08-19T03:53:10;29.95;;;23.52;;
39740;SDS011;25426;53.478;10.190;2022-08-19T03:55:41;27.05;;;23.00;;
39740;SDS011;25426;53.478;10.190;2022-08-19T03:58:12;26.50;;;21.80;;
39740;SDS011;25426;53.478;10.190;2022-08-19T04:00:43;29.02;;;23.35;;
39740;SDS011;25426;53.478;10.190;2022-08-19T04:03:14;33.50;;;24.17;;
39740;SDS011;25426;53.478;10.190;2022-08-19T04:05:46;34.60;;;25.40;;
39740;SDS011;25426;53.478;10.190;2022-08-19T04:08:17;32.03;;;25.75;;
39740;SDS011;25426;53.478;10.190;2022-08-19T04:10:50;37.38;;;26.35;;
39740;SDS011;25426;53.478;10.190;2022-08-19T04:13:21;39.63;;;28.05;;
39740;SDS011;25426;53.478;10.190;2022-08-19T04:15:52;37.13;;;26.17;;
39740;SDS011;25426;53.478;10.190;2022-08-19T04:18:23;38.75;;;28.33;;
39740;SDS011;25426;53.478;10.190;2022-08-19T04:20:55;40.50;;;29.88;;
39740;SDS011;25426;53.478;10.190;2022-08-19T04:23:26;46.63;;;29.67;;
39740;SDS011;25426;53.478;10.190;2022-08-19T04:25:58;41.13;;;28.88;;
39740;SDS011;25426;53.478;10.190;2022-08-19T04:28:29;41.60;;;29.27;;
39740;SDS011;25426;53.478;10.190;2022-08-19T04:31:00;41.33;;;27.60;;
39740;SDS011;25426;53.478;10.190;2022-08-19T04:33:30;41.15;;;28.13;;
39740;SDS011;25426;53.478;10.190;2022-08-19T04:36:01;39.08;;;27.35;;
39740;SDS011;25426;53.478;10.190;2022-08-19T04:38:33;37.47;;;26.88;;
39740;SDS011;25426;53.478;10.190;2022-08-19T04:41:03;38.58;;;26.95;;
39740;SDS011;25426;53.478;10.190;2022-08-19T04:43:54;42.75;;;28.17;;
39740;SDS011;25426;53.478;10.190;2022-08-19T04:46:25;41.78;;;27.75;;
39740;SDS011;25426;53.478;10.190;2022-08-19T04:48:56;39.63;;;28.10;;
39740;SDS011;25426;53.478;10.190;2022-08-19T04:51:29;38.58;;;27.98;;
39740;SDS011;25426;53.478;10.190;2022-08-19T04:54:01;40.97;;;26.75;;
39740;SDS011;25426;53.478;10.190;2022-08-19T04:56:32;36.60;;;25.98;;
39740;SDS011;25426;53.478;10.190;2022-08-19T04:59:03;42.10;;;26.65;;
39740;SDS011;25426;53.478;10.190;2022-08-19T05:01:34;36.80;;;25.85;;
39740;SDS011;25426;53.478;10.190;2022-08-19T05:04:06;33.70;;;23.40;;
39740;SDS011;25426;53.478;10.190;2022-08-19T05:06:38;33.83;;;24.63;;
39740;SDS011;25426;53.478;10.190;2022-08-19T05:09:09;34.22;;;25.50;;
39740;SDS011;25426;53.478;10.190;2022-08-19T05:11:40;32.92;;;26.05;;
39740;SDS011;25426;53.478;10.190;2022-08-19T05:14:11;36.72;;;25.85;;
39740;SDS011;25426;53.478;10.190;2022-08-19T05:16:42;32.78;;;25.38;;
39740;SDS011;25426;53.478;10.190;2022-08-19T05:19:13;42.42;;;26.70;;
39740;SDS011;25426;53.478;10.190;2022-08-19T05:22:03;38.10;;;27.77;;
39740;SDS011;25426;53.478;10.190;2022-08-19T05:25:07;41.92;;;27.55;;
39740;SDS011;25426;53.478;10.190;2022-08-19T05:27:42;38.75;;;27.65;;
39740;SDS011;25426;53.478;10.190;2022-08-19T05:30:13;36.28;;;27.48;;
39740;SDS011;25426;53.478;10.190;2022-08-19T05:32:44;42.33;;;30.80;;
39740;SDS011;25426;53.478;10.190;2022-08-19T05:35:15;42.65;;;30.02;;
39740;SDS011;25426;53.478;10.190;2022-08-19T05:37:46;46.45;;;30.73;;
39740;SDS011;25426;53.478;10.190;2022-08-19T05:40:16;53.40;;;33.33;;
39740;SDS011;25426;53.478;10.190;2022-08-19T05:42:47;46.03;;;30.65;;
39740;SDS011;25426;53.478;10.190;2022-08-19T05:45:19;46.28;;;30.65;;
39740;SDS011;25426;53.478;10.190;2022-08-19T05:47:51;56.40;;;35.67;;
39740;SDS011;25426;53.478;10.190;2022-08-19T05:50:22;45.00;;;32.80;;
39740;SDS011;25426;53.478;10.190;2022-08-19T05:52:53;54.70;;;35.92;;
39740;SDS011;25426;53.478;10.190;2022-08-19T05:55:23;56.28;;;34.35;;
39740;SDS011;25426;53.478;10.190;2022-08-19T05:57:54;54.03;;;33.97;;
39740;SDS011;25426;53.478;10.190;2022-08-19T06:00:25;53.22;;;36.13;;
39740;SDS011;25426;53.478;10.190;2022-08-19T06:02:56;53.55;;;36.70;;
39740;SDS011;25426;53.478;10.190;2022-08-19T06:05:33;50.75;;;35.30;;
39740;SDS011;25426;53.478;10.190;2022-08-19T06:08:03;50.50;;;36.72;;
39740;SDS011;25426;53.478;10.190;2022-08-19T06:10:35;55.17;;;37.65;;
39740;SDS011;25426;53.478;10.190;2022-08-19T06:13:07;47.22;;;36.45;;
39740;SDS011;25426;53.478;10.190;2022-08-19T06:15:37;50.35;;;36.83;;
39740;SDS011;25426;53.478;10.190;2022-08-19T06:18:08;54.10;;;38.35;;
39740;SDS011;25426;53.478;10.190;2022-08-19T06:20:39;53.45;;;36.72;;
39740;SDS011;25426;53.478;10.190;2022-08-19T06:23:10;51.63;;;37.65;;
39740;SDS011;25426;53.478;10.190;2022-08-19T06:25:41;50.67;;;35.92;;
39740;SDS011;25426;53.478;10.190;2022-08-19T06:28:12;53.08;;;36.28;;
39740;SDS011;25426;53.478;10.190;2022-08-19T06:30:43;52.40;;;37.88;;
39740;SDS011;25426;53.478;10.190;2022-08-19T06:33:14;56.15;;;37.42;;
39740;SDS011;25426;53.478;10.190;2022-08-19T06:35:45;52.72;;;38.28;;
39740;SDS011;25426;53.478;10.190;2022-08-19T06:38:16;56.50;;;37.13;;
39740;SDS011;25426;53.478;10.190;2022-08-19T06:40:46;50.72;;;36.47;;
39740;SDS011;25426;53.478;10.190;2022-08-19T06:43:17;54.22;;;36.80;;
39740;SDS011;25426;53.478;10.190;2022-08-19T06:45:48;47.03;;;35.72;;
39740;SDS011;25426;53.478;10.190;2022-08-19T06:48:21;45.03;;;33.53;;
39740;SDS011;25426;53.478;10.190;2022-08-19T06:50:52;45.05;;;34.63;;
39740;SDS011;25426;53.478;10.190;2022-08-19T06:53:23;46.92;;;35.17;;
39740;SDS011;25426;53.478;10.190;2022-08-19T06:55:54;47.17;;;35.47;;
39740;SDS011;25426;53.478;10.190;2022-08-19T06:58:30;54.95;;;35.65;;
39740;SDS011;25426;53.478;10.190;2022-08-19T07:01:02;44.03;;;33.03;;
39740;SDS011;25426;53.478;10.190;2022-08-19T07:03:34;46.53;;;34.20;;
39740;SDS011;25426;53.478;10.190;2022-08-19T07:06:07;40.45;;;32.10;;
39740;SDS011;25426;53.478;10.190;2022-08-19T07:08:41;41.00;;;31.05;;
39740;SDS011;25426;53.478;10.190;2022-08-19T07:11:13;35.13;;;29.65;;
39740;SDS011;25426;53.478;10.190;2022-08-19T07:13:48;37.80;;;29.00;;
39740;SDS011;25426;53.478;10.190;2022-08-19T07:16:18;36.42;;;30.85;;
39740;SDS011;25426;53.478;10.190;2022-08-19T07:18:50;40.10;;;29.98;;
39740;SDS011;25426;53.478;10.190;2022-08-19T07:21:25;33.95;;;28.50;;
39740;SDS011;25426;53.478;10.190;2022-08-19T07:23:58;38.40;;;29.42;;
39740;SDS011;25426;53.478;10.190;2022-08-19T07:26:32;36.63;;;29.13;;
39740;SDS011;25426;53.478;10.190;2022-08-19T07:29:10;35.55;;;26.58;;
39740;SDS011;25426;53.478;10.190;2022-08-19T07:31:41;31.48;;;25.75;;
39740;SDS011;25426;53.478;10.190;2022-08-19T07:34:12;36.13;;;28.00;;
39740;SDS011;25426;53.478;10.190;2022-08-19T07:36:44;31.67;;;25.63;;
39740;SDS011;25426;53.478;10.190;2022-08-19T07:39:17;31.63;;;26.00;;
39740;SDS011;25426;53.478;10.190;2022-08-19T07:41:51;35.75;;;28.02;;
39740;SDS011;25426;53.478;10.190;2022-08-19T07:44:22;33.60;;;26.38;;
39740;SDS011;25426;53.478;10.190;2022-08-19T07:46:53;34.90;;;28.92;;
39740;SDS011;25426;53.478;10.190;2022-08-19T07:49:26;38.35;;;30.08;;
39740;SDS011;25426;53.478;10.190;2022-08-19T07:51:59;39.83;;;31.40;;
39740;SDS011;25426;53.478;10.190;2022-08-19T07:54:34;36.88;;;30.23;;
39740;SDS011;25426;53.478;10.190;2022-08-19T07:57:07;39.78;;;32.88;;
39740;SDS011;25426;53.478;10.190;2022-08-19T07:59:38;43.95;;;34.03;;
39740;SDS011;25426;53.478;10.190;2022-08-19T08:02:10;40.72;;;30.98;;
39740;SDS011;25426;53.478;10.190;2022-08-19T08:04:40;39.88;;;30.83;;
39740;SDS011;25426;53.478;10.190;2022-08-19T08:07:29;43.08;;;32.28;;
39740;SDS011;25426;53.478;10.190;2022-08-19T08:10:18;39.85;;;31.75;;
39740;SDS011;25426;53.478;10.190;2022-08-19T08:12:49;36.58;;;30.00;;
39740;SDS011;25426;53.478;10.190;2022-08-19T08:15:20;38.97;;;30.13;;
39740;SDS011;25426;53.478;10.190;2022-08-19T08:17:51;39.63;;;31.80;;
39740;SDS011;25426;53.478;10.190;2022-08-19T08:20:21;40.35;;;29.73;;
39740;SDS011;25426;53.478;10.190;2022-08-19T08:22:52;37.38;;;26.02;;
39740;SDS011;25426;53.478;10.190;2022-08-19T08:25:41;37.85;;;26.70;;
39740;SDS011;25426;53.478;10.190;2022-08-19T08:28:13;34.22;;;27.40;;
39740;SDS011;25426;53.478;10.190;2022-08-19T08:30:44;33.75;;;26.50;;
39740;SDS011;25426;53.478;10.190;2022-08-19T08:33:18;36.10;;;26.75;;
39740;SDS011;25426;53.478;10.190;2022-08-19T08:35:51;32.08;;;26.08;;
39740;SDS011;25426;53.478;10.190;2022-08-19T08:38:22;34.72;;;25.10;;
39740;SDS011;25426;53.478;10.190;2022-08-19T08:40:55;29.55;;;24.70;;
39740;SDS011;25426;53.478;10.190;2022-08-19T08:43:37;28.70;;;24.80;;
39740;SDS011;25426;53.478;10.190;2022-08-19T08:46:13;33.60;;;23.52;;
39740;SDS011;25426;53.478;10.190;2022-08-19T08:51:48;28.67;;;20.58;;
39740;SDS011;25426;53.478;10.190;2022-08-19T08:54:35;26.17;;;21.70;;
39740;SDS011;25426;53.478;10.190;2022-08-19T08:57:20;27.65;;;22.27;;
39740;SDS011;25426;53.478;10.190;2022-08-19T09:00:15;22.02;;;18.63;;
39740;SDS011;25426;53.478;10.190;2022-08-19T09:06:07;24.83;;;19.45;;
39740;SDS011;25426;53.478;10.190;2022-08-19T09:11:47;28.50;;;19.42;;
39740;SDS011;25426;53.478;10.190;2022-08-19T09:17:27;28.35;;;22.75;;
39740;SDS011;25426;53.478;10.190;2022-08-19T09:20:03;28.52;;;22.77;;
39740;SDS011;25426;53.478;10.190;2022-08-19T09:22:39;27.58;;;23.00;;
39740;SDS011;25426;53.478;10.190;2022-08-19T09:25:16;34.00;;;22.27;;
39740;SDS011;25426;53.478;10.190;2022-08-19T09:27:51;27.48;;;21.27;;
39740;SDS011;25426;53.478;10.190;2022-08-19T09:30:25;30.23;;;23.60;;
39740;SDS011;25426;53.478;10.190;2022-08-19T09:32:58;35.20;;;24.48;;
39740;SDS011;25426;53.478;10.190;2022-08-19T09:35:29;32.30;;;23.85;;
39740;SDS011;25426;53.478;10.190;2022-08-19T09:38:00;31.23;;;23.95;;
39740;SDS011;25426;53.478;10.190;2022-08-19T09:40:31;31.75;;;24.30;;
39740;SDS011;25426;53.478;10.190;2022-08-19T09:43:02;34.42;;;25.35;;
39740;SDS011;25426;53.478;10.190;2022-08-19T09:45:35;35.65;;;26.17;;
39740;SDS011;25426;53.478;10.190;2022-08-19T09:48:05;35.72;;;24.67;;
39740;SDS011;25426;53.478;10.190;2022-08-19T09:50:36;35.13;;;24.90;;
39740;SDS011;25426;53.478;10.190;2022-08-19T09:53:08;29.48;;;24.77;;
39740;SDS011;25426;53.478;10.190;2022-08-19T09:55:42;31.60;;;23.30;;
39740;SDS011;25426;53.478;10.190;2022-08-19T09:58:13;31.00;;;25.40;;
39740;SDS011;25426;53.478;10.190;2022-08-19T10:00:44;33.45;;;25.20;;
39740;SDS011;25426;53.478;10.190;2022-08-19T10:03:16;35.83;;;25.38;;
39740;SDS011;25426;53.478;10.190;2022-08-19T10:05:47;34.00;;;24.15;;
39740;SDS011;25426;53.478;10.190;2022-08-19T10:08:19;34.67;;;25.15;;
39740;SDS011;25426;53.478;10.190;2022-08-19T10:10:53;29.27;;;23.90;;
39740;SDS011;25426;53.478;10.190;2022-08-19T10:13:25;38.80;;;24.85;;
39740;SDS011;25426;53.478;10.190;2022-08-19T10:16:04;31.70;;;24.88;;
39740;SDS011;25426;53.478;10.190;2022-08-19T10:18:40;29.73;;;23.27;;
39740;SDS011;25426;53.478;10.190;2022-08-19T10:21:15;33.00;;;24.27;;
39740;SDS011;25426;53.478;10.190;2022-08-19T10:23:53;28.65;;;23.20;;
39740;SDS011;25426;53.478;10.190;2022-08-19T10:26:29;32.17;;;24.15;;
39740;SDS011;25426;53.478;10.190;2022-08-19T10:29:02;33.08;;;24.67;;
39740;SDS011;25426;53.478;10.190;2022-08-19T10:31:34;29.90;;;23.23;;
39740;SDS011;25426;53.478;10.190;2022-08-19T10:34:05;35.20;;;25.00;;
39740;SDS011;25426;53.478;10.190;2022-08-19T10:36:36;30.88;;;24.70;;
39740;SDS011;25426;53.478;10.190;2022-08-19T10:39:09;29.40;;;24.92;;
39740;SDS011;25426;53.478;10.190;2022-08-19T10:41:41;32.90;;;22.52;;
39740;SDS011;25426;53.478;10.190;2022-08-19T10:44:13;28.55;;;23.35;;
39740;SDS011;25426;53.478;10.190;2022-08-19T10:46:45;28.52;;;23.50;;
39740;SDS011;25426;53.478;10.190;2022-08-19T10:49:17;29.25;;;21.08;;
39740;SDS011;25426;53.478;10.190;2022-08-19T10:51:49;30.17;;;22.23;;
39740;SDS011;25426;53.478;10.190;2022-08-19T10:54:38;34.05;;;21.70;;
39740;SDS011;25426;53.478;10.190;2022-08-19T10:57:31;23.90;;;21.23;;
39740;SDS011;25426;53.478;10.190;2022-08-19T11:00:02;26.08;;;21.13;;
39740;SDS011;25426;53.478;10.190;2022-08-19T11:02:34;30.45;;;20.88;;
39740;SDS011;25426;53.478;10.190;2022-08-19T11:05:05;28.73;;;20.40;;
39740;SDS011;25426;53.478;10.190;2022-08-19T11:07:38;30.10;;;20.13;;
39740;SDS011;25426;53.478;10.190;2022-08-19T11:10:10;28.92;;;21.35;;
39740;SDS011;25426;53.478;10.190;2022-08-19T11:12:44;34.63;;;22.35;;
39740;SDS011;25426;53.478;10.190;2022-08-19T11:15:16;31.02;;;22.33;;
39740;SDS011;25426;53.478;10.190;2022-08-19T11:17:47;26.98;;;22.45;;
39740;SDS011;25426;53.478;10.190;2022-08-19T11:20:18;25.70;;;20.42;;
39740;SDS011;25426;53.478;10.190;2022-08-19T11:22:49;27.60;;;20.02;;
39740;SDS011;25426;53.478;10.190;2022-08-19T11:25:23;24.92;;;20.30;;
39740;SDS011;25426;53.478;10.190;2022-08-19T11:27:54;30.98;;;22.13;;
39740;SDS011;25426;53.478;10.190;2022-08-19T11:30:25;26.58;;;20.88;;
39740;SDS011;25426;53.478;10.190;2022-08-19T11:32:57;31.02;;;22.55;;
39740;SDS011;25426;53.478;10.190;2022-08-19T11:35:30;26.70;;;22.55;;
39740;SDS011;25426;53.478;10.190;2022-08-19T11:38:02;26.10;;;21.65;;
39740;SDS011;25426;53.478;10.190;2022-08-19T11:40:33;27.90;;;21.58;;
39740;SDS011;25426;53.478;10.190;2022-08-19T11:43:04;24.42;;;20.52;;
39740;SDS011;25426;53.478;10.190;2022-08-19T11:45:36;27.88;;;21.42;;
39740;SDS011;25426;53.478;10.190;2022-08-19T11:48:06;28.15;;;21.75;;
39740;SDS011;25426;53.478;10.190;2022-08-19T11:50:37;27.60;;;21.48;;
39740;SDS011;25426;53.478;10.190;2022-08-19T11:53:10;28.70;;;22.75;;
39740;SDS011;25426;53.478;10.190;2022-08-19T11:55:41;24.60;;;21.30;;
39740;SDS011;25426;53.478;10.190;2022-08-19T11:58:13;27.92;;;21.83;;
39740;SDS011;25426;53.478;10.190;2022-08-19T12:00:45;26.08;;;22.13;;
39740;SDS011;25426;53.478;10.190;2022-08-19T12:03:16;25.40;;;21.45;;
39740;SDS011;25426;53.478;10.190;2022-08-19T12:05:48;24.13;;;21.30;;
39740;SDS011;25426;53.478;10.190;2022-08-19T12:08:19;28.48;;;21.17;;
39740;SDS011;25426;53.478;10.190;2022-08-19T12:10:50;28.17;;;22.20;;
39740;SDS011;25426;53.478;10.190;2022-08-19T12:13:21;28.60;;;20.98;;
39740;SDS011;25426;53.478;10.190;2022-08-19T12:15:52;24.63;;;20.77;;
39740;SDS011;25426;53.478;10.190;2022-08-19T12:18:24;26.33;;;23.52;;
39740;SDS011;25426;53.478;10.190;2022-08-19T12:20:55;28.58;;;22.27;;
39740;SDS011;25426;53.478;10.190;2022-08-19T12:23:26;28.60;;;23.08;;
39740;SDS011;25426;53.478;10.190;2022-08-19T12:25:56;30.35;;;23.15;;
39740;SDS011;25426;53.478;10.190;2022-08-19T12:28:27;26.80;;;22.48;;
39740;SDS011;25426;53.478;10.190;2022-08-19T12:30:58;28.75;;;22.42;;
39740;SDS011;25426;53.478;10.190;2022-08-19T12:33:29;29.38;;;23.50;;
39740;SDS011;25426;53.478;10.190;2022-08-19T12:36:03;24.17;;;20.80;;
39740;SDS011;25426;53.478;10.190;2022-08-19T12:38:36;26.77;;;22.35;;
39740;SDS011;25426;53.478;10.190;2022-08-19T12:41:09;22.05;;;19.73;;
39740;SDS011;25426;53.478;10.190;2022-08-19T12:43:44;25.65;;;20.80;;
39740;SDS011;25426;53.478;10.190;2022-08-19T12:46:15;27.05;;;21.15;;
39740;SDS011;25426;53.478;10.190;2022-08-19T12:48:46;24.38;;;18.50;;
39740;SDS011;25426;53.478;10.190;2022-08-19T12:51:17;23.35;;;19.55;;
39740;SDS011;25426;53.478;10.190;2022-08-19T12:53:49;21.35;;;19.05;;
39740;SDS011;25426;53.478;10.190;2022-08-19T12:56:20;20.02;;;17.77;;
39740;SDS011;25426;53.478;10.190;2022-08-19T12:58:51;22.40;;;19.63;;
39740;SDS011;25426;53.478;10.190;2022-08-19T13:01:22;18.60;;;16.25;;
39740;SDS011;25426;53.478;10.190;2022-08-19T13:03:53;17.90;;;16.10;;
39740;SDS011;25426;53.478;10.190;2022-08-19T13:06:23;16.50;;;14.88;;
39740;SDS011;25426;53.478;10.190;2022-08-19T13:08:54;19.13;;;16.15;;
39740;SDS011;25426;53.478;10.190;2022-08-19T13:11:25;16.13;;;14.02;;
39740;SDS011;25426;53.478;10.190;2022-08-19T13:13:56;17.05;;;15.23;;
39740;SDS011;25426;53.478;10.190;2022-08-19T13:16:28;18.27;;;16.48;;
39740;SDS011;25426;53.478;10.190;2022-08-19T13:18:58;20.67;;;17.70;;
39740;SDS011;25426;53.478;10.190;2022-08-19T13:21:33;20.17;;;16.75;;
39740;SDS011;25426;53.478;10.190;2022-08-19T13:24:04;17.98;;;14.88;;
39740;SDS011;25426;53.478;10.190;2022-08-19T13:26:34;16.23;;;14.50;;
39740;SDS011;25426;53.478;10.190;2022-08-19T13:29:05;16.10;;;14.38;;
39740;SDS011;25426;53.478;10.190;2022-08-19T13:31:54;16.95;;;14.63;;
39740;SDS011;25426;53.478;10.190;2022-08-19T13:34:44;18.30;;;15.40;;
39740;SDS011;25426;53.478;10.190;2022-08-19T13:37:16;17.80;;;16.00;;
39740;SDS011;25426;53.478;10.190;2022-08-19T13:40:08;16.02;;;14.45;;
39740;SDS011;25426;53.478;10.190;2022-08-19T13:42:46;15.70;;;13.77;;
39740;SDS011;25426;53.478;10.190;2022-08-19T13:45:21;15.15;;;13.65;;
39740;SDS011;25426;53.478;10.190;2022-08-19T13:47:55;14.65;;;12.57;;
39740;SDS011;25426;53.478;10.190;2022-08-19T13:50:29;16.52;;;14.05;;
39740;SDS011;25426;53.478;10.190;2022-08-19T13:53:01;16.05;;;14.43;;
39740;SDS011;25426;53.478;10.190;2022-08-19T13:55:32;15.07;;;13.52;;
39740;SDS011;25426;53.478;10.190;2022-08-19T13:58:03;15.15;;;13.65;;
39740;SDS011;25426;53.478;10.190;2022-08-19T14:00:36;15.18;;;12.02;;
39740;SDS011;25426;53.478;10.190;2022-08-19T14:03:11;13.63;;;12.23;;
39740;SDS011;25426;53.478;10.190;2022-08-19T14:05:42;15.00;;;12.30;;
39740;SDS011;25426;53.478;10.190;2022-08-19T14:08:12;14.25;;;13.05;;
39740;SDS011;25426;53.478;10.190;2022-08-19T14:10:44;15.00;;;13.48;;
39740;SDS011;25426;53.478;10.190;2022-08-19T14:13:16;14.80;;;13.30;;
39740;SDS011;25426;53.478;10.190;2022-08-19T14:15:50;13.55;;;11.88;;
39740;SDS011;25426;53.478;10.190;2022-08-19T14:18:23;14.95;;;13.55;;
39740;SDS011;25426;53.478;10.190;2022-08-19T14:20:55;13.93;;;12.65;;
39740;SDS011;25426;53.478;10.190;2022-08-19T14:23:26;14.73;;;13.15;;
39740;SDS011;25426;53.478;10.190;2022-08-19T14:26:08;14.07;;;12.68;;
39740;SDS011;25426;53.478;10.190;2022-08-19T14:28:42;12.82;;;11.68;;
39740;SDS011;25426;53.478;10.190;2022-08-19T14:31:15;14.18;;;12.98;;
39740;SDS011;25426;53.478;10.190;2022-08-19T14:33:49;13.98;;;12.73;;
39740;SDS011;25426;53.478;10.190;2022-08-19T14:36:20;16.23;;;12.52;;
39740;SDS011;25426;53.478;10.190;2022-08-19T14:38:51;15.13;;;13.73;;
39740;SDS011;25426;53.478;10.190;2022-08-19T14:41:23;15.40;;;14.00;;
39740;SDS011;25426;53.478;10.190;2022-08-19T14:43:55;16.52;;;14.82;;
39740;SDS011;25426;53.478;10.190;2022-08-19T14:46:26;13.13;;;11.93;;
39740;SDS011;25426;53.478;10.190;2022-08-19T14:48:57;16.92;;;15.23;;
39740;SDS011;25426;53.478;10.190;2022-08-19T14:51:28;15.70;;;14.10;;
39740;SDS011;25426;53.478;10.190;2022-08-19T14:53:59;13.77;;;12.48;;